sensor_id;sensor_type;location;lat;lon;timestamp;P1;durP1;ratioP1;P2;durP2;ratioP2
16039;SDS011;8124;48.634;8.120;2023-09-12T00:04:18;51.53;;;45.30;;
16039;SDS011;8124;48.634;8.120;2023-09-12T00:09:21;48.90;;;43.10;;
16039;SDS011;8124;48.634;8.120;2023-09-12T00:14:24;48.42;;;43.15;;
16039;SDS011;8124;48.634;8.120;2023-09-12T00:19:29;50.67;;;44.28;;
16039;SDS011;8124;48.634;8.120;2023-09-12T00:24:32;50.95;;;45.45;;
16039;SDS011;8124;48.634;8.120;2023-09-12T00:29:34;48.83;;;43.22;;
16039;SDS011;8124;48.634;8.120;2023-09-12T00:34:39;50.42;;;44.08;;
16039;SDS011;8124;48.634;8.120;2023-09-12T00:39:42;54.53;;;45.53;;
16039;SDS011;8124;48.634;8.120;2023-09-12T00:44:45;48.13;;;43.00;;
16039;SDS011;8124;48.634;8.120;2023-09-12T00:49:49;50.20;;;44.67;;
16039;SDS011;8124;48.634;8.120;2023-09-12T00:54:57;50.22;;;44.70;;
16039;SDS011;8124;48.634;8.120;2023-09-12T01:00:00;51.10;;;44.78;;
16039;SDS011;8124;48.634;8.120;2023-09-12T01:05:15;52.55;;;45.25;;
16039;SDS011;8124;48.634;8.120;2023-09-12T01:10:18;52.20;;;45.10;;
16039;SDS011;8124;48.634;8.120;2023-09-12T01:15:22;49.85;;;44.33;;
16039;SDS011;8124;48.634;8.120;2023-09-12T01:20:27;49.88;;;44.47;;
16039;SDS011;8124;48.634;8.120;2023-09-12T01:25:42;51.53;;;44.28;;
16039;SDS011;8124;48.634;8.120;2023-09-12T01:30:59;48.83;;;43.40;;
16039;SDS011;8124;48.634;8.120;2023-09-12T01:36:04;53.17;;;44.42;;
16039;SDS011;8124;48.634;8.120;2023-09-12T01:41:07;50.50;;;43.63;;
16039;SDS011;8124;48.634;8.120;2023-09-12T01:46:12;49.80;;;44.40;;
16039;SDS011;8124;48.634;8.120;2023-09-12T01:51:17;48.75;;;43.17;;
16039;SDS011;8124;48.634;8.120;2023-09-12T01:56:21;49.50;;;43.92;;
16039;SDS011;8124;48.634;8.120;2023-09-12T02:01:27;49.17;;;43.78;;
16039;SDS011;8124;48.634;8.120;2023-09-12T02:06:30;48.78;;;42.88;;
16039;SDS011;8124;48.634;8.120;2023-09-12T02:11:33;51.95;;;43.20;;
16039;SDS011;8124;48.634;8.120;2023-09-12T02:16:37;52.50;;;43.63;;
16039;SDS011;8124;48.634;8.120;2023-09-12T02:21:45;49.42;;;43.83;;
16039;SDS011;8124;48.634;8.120;2023-09-12T02:26:48;55.70;;;43.70;;
16039;SDS011;8124;48.634;8.120;2023-09-12T02:31:52;49.45;;;43.85;;
16039;SDS011;8124;48.634;8.120;2023-09-12T02:36:55;49.13;;;42.70;;
16039;SDS011;8124;48.634;8.120;2023-09-12T02:41:58;59.85;;;44.00;;
16039;SDS011;8124;48.634;8.120;2023-09-12T02:47:03;49.13;;;43.10;;
16039;SDS011;8124;48.634;8.120;2023-09-12T02:52:07;48.08;;;42.78;;
16039;SDS011;8124;48.634;8.120;2023-09-12T02:57:10;50.80;;;43.58;;
16039;SDS011;8124;48.634;8.120;2023-09-12T03:02:15;52.75;;;43.17;;
16039;SDS011;8124;48.634;8.120;2023-09-12T03:07:18;49.05;;;43.30;;
16039;SDS011;8124;48.634;8.120;2023-09-12T03:12:21;53.03;;;43.45;;
16039;SDS011;8124;48.634;8.120;2023-09-12T03:17:25;51.97;;;44.75;;
16039;SDS011;8124;48.634;8.120;2023-09-12T03:22:30;50.17;;;42.90;;
16039;SDS011;8124;48.634;8.120;2023-09-12T03:27:34;50.72;;;44.35;;
16039;SDS011;8124;48.634;8.120;2023-09-12T03:32:38;51.28;;;44.53;;
16039;SDS011;8124;48.634;8.120;2023-09-12T03:37:41;50.28;;;43.50;;
16039;SDS011;8124;48.634;8.120;2023-09-12T03:42:44;50.40;;;42.83;;
16039;SDS011;8124;48.634;8.120;2023-09-12T03:47:49;49.08;;;43.78;;
16039;SDS011;8124;48.634;8.120;2023-09-12T03:52:52;54.10;;;48.20;;
16039;SDS011;8124;48.634;8.120;2023-09-12T03:57:55;51.33;;;44.13;;
16039;SDS011;8124;48.634;8.120;2023-09-12T04:02:59;49.97;;;44.15;;
16039;SDS011;8124;48.634;8.120;2023-09-12T04:08:03;54.17;;;45.60;;
16039;SDS011;8124;48.634;8.120;2023-09-12T04:13:06;49.97;;;43.72;;
16039;SDS011;8124;48.634;8.120;2023-09-12T04:18:11;53.08;;;44.00;;
16039;SDS011;8124;48.634;8.120;2023-09-12T04:23:14;54.88;;;48.88;;
16039;SDS011;8124;48.634;8.120;2023-09-12T04:28:18;49.15;;;43.65;;
16039;SDS011;8124;48.634;8.120;2023-09-12T04:33:22;50.22;;;43.92;;
16039;SDS011;8124;48.634;8.120;2023-09-12T04:38:25;50.70;;;43.13;;
16039;SDS011;8124;48.634;8.120;2023-09-12T04:43:29;49.50;;;43.40;;
16039;SDS011;8124;48.634;8.120;2023-09-12T04:48:33;49.35;;;42.97;;
16039;SDS011;8124;48.634;8.120;2023-09-12T04:53:36;53.45;;;44.88;;
16039;SDS011;8124;48.634;8.120;2023-09-12T04:58:41;50.83;;;44.45;;
16039;SDS011;8124;48.634;8.120;2023-09-12T05:03:45;49.28;;;44.03;;
16039;SDS011;8124;48.634;8.120;2023-09-12T05:08:48;53.60;;;44.65;;
16039;SDS011;8124;48.634;8.120;2023-09-12T05:13:52;51.08;;;43.97;;
16039;SDS011;8124;48.634;8.120;2023-09-12T05:18:57;49.35;;;43.95;;
16039;SDS011;8124;48.634;8.120;2023-09-12T05:24:00;51.20;;;43.35;;
16039;SDS011;8124;48.634;8.120;2023-09-12T05:29:03;51.28;;;44.65;;
16039;SDS011;8124;48.634;8.120;2023-09-12T05:34:08;52.70;;;44.35;;
16039;SDS011;8124;48.634;8.120;2023-09-12T05:39:11;52.30;;;43.85;;
16039;SDS011;8124;48.634;8.120;2023-09-12T05:44:16;50.90;;;44.42;;
16039;SDS011;8124;48.634;8.120;2023-09-12T05:49:21;51.33;;;43.80;;
16039;SDS011;8124;48.634;8.120;2023-09-12T05:54:24;48.28;;;42.67;;
16039;SDS011;8124;48.634;8.120;2023-09-12T05:59:28;53.22;;;43.72;;
16039;SDS011;8124;48.634;8.120;2023-09-12T06:04:32;49.58;;;43.33;;
16039;SDS011;8124;48.634;8.120;2023-09-12T06:09:35;50.65;;;45.05;;
16039;SDS011;8124;48.634;8.120;2023-09-12T06:14:39;49.67;;;43.67;;
16039;SDS011;8124;48.634;8.120;2023-09-12T06:19:43;57.50;;;44.25;;
16039;SDS011;8124;48.634;8.120;2023-09-12T06:24:47;51.25;;;44.45;;
16039;SDS011;8124;48.634;8.120;2023-09-12T06:29:50;54.22;;;44.17;;
16039;SDS011;8124;48.634;8.120;2023-09-12T06:34:54;50.60;;;43.95;;
16039;SDS011;8124;48.634;8.120;2023-09-12T06:39:57;52.05;;;43.83;;
16039;SDS011;8124;48.634;8.120;2023-09-12T06:45:00;49.42;;;44.03;;
16039;SDS011;8124;48.634;8.120;2023-09-12T06:50:04;53.15;;;44.40;;
16039;SDS011;8124;48.634;8.120;2023-09-12T06:55:13;50.90;;;43.85;;
16039;SDS011;8124;48.634;8.120;2023-09-12T07:00:17;48.95;;;43.50;;
16039;SDS011;8124;48.634;8.120;2023-09-12T07:05:21;49.38;;;43.63;;
16039;SDS011;8124;48.634;8.120;2023-09-12T07:10:24;50.03;;;44.55;;
16039;SDS011;8124;48.634;8.120;2023-09-12T07:15:28;50.85;;;44.85;;
16039;SDS011;8124;48.634;8.120;2023-09-12T07:20:33;49.85;;;44.30;;
16039;SDS011;8124;48.634;8.120;2023-09-12T07:25:37;53.45;;;44.95;;
16039;SDS011;8124;48.634;8.120;2023-09-12T07:30:41;50.05;;;44.47;;
16039;SDS011;8124;48.634;8.120;2023-09-12T07:35:50;51.42;;;44.85;;
16039;SDS011;8124;48.634;8.120;2023-09-12T07:40:55;53.35;;;45.42;;
16039;SDS011;8124;48.634;8.120;2023-09-12T07:45:58;52.35;;;45.88;;
16039;SDS011;8124;48.634;8.120;2023-09-12T07:51:04;50.72;;;45.15;;
16039;SDS011;8124;48.634;8.120;2023-09-12T07:56:14;53.53;;;46.05;;
16039;SDS011;8124;48.634;8.120;2023-09-12T08:01:17;51.83;;;44.95;;
16039;SDS011;8124;48.634;8.120;2023-09-12T08:06:21;55.63;;;46.35;;
16039;SDS011;8124;48.634;8.120;2023-09-12T08:11:25;52.75;;;44.38;;
16039;SDS011;8124;48.634;8.120;2023-09-12T08:16:29;54.15;;;46.00;;
16039;SDS011;8124;48.634;8.120;2023-09-12T08:21:34;55.67;;;45.35;;
16039;SDS011;8124;48.634;8.120;2023-09-12T08:26:37;53.22;;;45.35;;
16039;SDS011;8124;48.634;8.120;2023-09-12T08:31:41;56.58;;;46.35;;
16039;SDS011;8124;48.634;8.120;2023-09-12T08:36:45;61.08;;;45.28;;
16039;SDS011;8124;48.634;8.120;2023-09-12T08:41:48;58.33;;;45.55;;
16039;SDS011;8124;48.634;8.120;2023-09-12T08:46:51;55.70;;;45.50;;
16039;SDS011;8124;48.634;8.120;2023-09-12T08:51:56;56.88;;;46.22;;
16039;SDS011;8124;48.634;8.120;2023-09-12T08:56:59;52.45;;;45.42;;
16039;SDS011;8124;48.634;8.120;2023-09-12T09:02:05;53.20;;;45.83;;
16039;SDS011;8124;48.634;8.120;2023-09-12T09:07:12;51.45;;;44.80;;
16039;SDS011;8124;48.634;8.120;2023-09-12T09:12:16;56.33;;;46.38;;
16039;SDS011;8124;48.634;8.120;2023-09-12T09:17:19;53.22;;;45.92;;
16039;SDS011;8124;48.634;8.120;2023-09-12T09:22:37;53.47;;;46.25;;
16039;SDS011;8124;48.634;8.120;2023-09-12T09:27:40;52.28;;;44.88;;
16039;SDS011;8124;48.634;8.120;2023-09-12T09:32:43;52.97;;;45.78;;
16039;SDS011;8124;48.634;8.120;2023-09-12T09:37:49;55.80;;;46.15;;
16039;SDS011;8124;48.634;8.120;2023-09-12T09:42:53;51.75;;;46.08;;
16039;SDS011;8124;48.634;8.120;2023-09-12T09:47:57;55.25;;;45.70;;
16039;SDS011;8124;48.634;8.120;2023-09-12T09:53:03;56.63;;;46.17;;
16039;SDS011;8124;48.634;8.120;2023-09-12T09:58:12;53.85;;;46.00;;
16039;SDS011;8124;48.634;8.120;2023-09-12T10:03:18;53.65;;;45.90;;
16039;SDS011;8124;48.634;8.120;2023-09-12T10:08:25;52.03;;;46.13;;
16039;SDS011;8124;48.634;8.120;2023-09-12T10:13:29;54.85;;;45.65;;
16039;SDS011;8124;48.634;8.120;2023-09-12T10:18:37;51.65;;;46.03;;
16039;SDS011;8124;48.634;8.120;2023-09-12T10:23:45;51.67;;;46.17;;
16039;SDS011;8124;48.634;8.120;2023-09-12T10:28:52;54.03;;;45.53;;
16039;SDS011;8124;48.634;8.120;2023-09-12T10:33:56;50.97;;;44.85;;
16039;SDS011;8124;48.634;8.120;2023-09-12T10:39:02;52.00;;;45.20;;
16039;SDS011;8124;48.634;8.120;2023-09-12T10:44:09;53.60;;;45.08;;
16039;SDS011;8124;48.634;8.120;2023-09-12T10:49:13;51.03;;;45.55;;
16039;SDS011;8124;48.634;8.120;2023-09-12T10:54:24;51.20;;;45.70;;
16039;SDS011;8124;48.634;8.120;2023-09-12T10:59:28;50.95;;;45.40;;
16039;SDS011;8124;48.634;8.120;2023-09-12T11:04:33;51.85;;;45.00;;
16039;SDS011;8124;48.634;8.120;2023-09-12T11:09:40;50.05;;;44.65;;
16039;SDS011;8124;48.634;8.120;2023-09-12T11:15:02;50.47;;;44.90;;
16039;SDS011;8124;48.634;8.120;2023-09-12T11:20:07;51.05;;;45.45;;
16039;SDS011;8124;48.634;8.120;2023-09-12T11:25:17;51.88;;;45.55;;
16039;SDS011;8124;48.634;8.120;2023-09-12T11:30:24;50.67;;;44.95;;
16039;SDS011;8124;48.634;8.120;2023-09-12T11:35:28;53.70;;;44.97;;
16039;SDS011;8124;48.634;8.120;2023-09-12T11:40:42;50.47;;;45.08;;
16039;SDS011;8124;48.634;8.120;2023-09-12T11:45:47;50.78;;;45.10;;
16039;SDS011;8124;48.634;8.120;2023-09-12T11:50:51;50.72;;;45.38;;
16039;SDS011;8124;48.634;8.120;2023-09-12T11:55:57;49.75;;;44.45;;
16039;SDS011;8124;48.634;8.120;2023-09-12T12:01:01;49.97;;;44.58;;
16039;SDS011;8124;48.634;8.120;2023-09-12T12:06:04;51.83;;;46.33;;
16039;SDS011;8124;48.634;8.120;2023-09-12T12:11:09;49.80;;;44.40;;
16039;SDS011;8124;48.634;8.120;2023-09-12T12:16:15;49.55;;;44.20;;
16039;SDS011;8124;48.634;8.120;2023-09-12T12:21:19;51.35;;;44.80;;
16039;SDS011;8124;48.634;8.120;2023-09-12T12:26:24;49.95;;;44.65;;
16039;SDS011;8124;48.634;8.120;2023-09-12T12:31:27;50.55;;;44.40;;
16039;SDS011;8124;48.634;8.120;2023-09-12T12:36:36;50.28;;;44.90;;
16039;SDS011;8124;48.634;8.120;2023-09-12T12:41:58;49.45;;;44.15;;
16039;SDS011;8124;48.634;8.120;2023-09-12T12:47:03;49.33;;;44.13;;
16039;SDS011;8124;48.634;8.120;2023-09-12T12:52:10;50.55;;;45.25;;
16039;SDS011;8124;48.634;8.120;2023-09-12T12:57:20;50.97;;;45.25;;
16039;SDS011;8124;48.634;8.120;2023-09-12T13:02:23;50.50;;;45.17;;
16039;SDS011;8124;48.634;8.120;2023-09-12T13:07:26;52.20;;;44.58;;
16039;SDS011;8124;48.634;8.120;2023-09-12T13:12:30;49.92;;;44.63;;
16039;SDS011;8124;48.634;8.120;2023-09-12T13:17:33;50.25;;;44.85;;
16039;SDS011;8124;48.634;8.120;2023-09-12T13:22:37;51.25;;;45.03;;
16039;SDS011;8124;48.634;8.120;2023-09-12T13:27:43;49.53;;;44.22;;
16039;SDS011;8124;48.634;8.120;2023-09-12T13:32:46;50.00;;;44.80;;
16039;SDS011;8124;48.634;8.120;2023-09-12T13:37:49;49.67;;;44.28;;
16039;SDS011;8124;48.634;8.120;2023-09-12T13:42:53;50.17;;;44.55;;
16039;SDS011;8124;48.634;8.120;2023-09-12T13:47:57;50.63;;;45.22;;
16039;SDS011;8124;48.634;8.120;2023-09-12T13:53:00;50.10;;;44.83;;
16039;SDS011;8124;48.634;8.120;2023-09-12T13:58:06;51.13;;;45.63;;
16039;SDS011;8124;48.634;8.120;2023-09-12T14:03:09;49.45;;;44.25;;
16039;SDS011;8124;48.634;8.120;2023-09-12T14:08:12;49.13;;;43.95;;
16039;SDS011;8124;48.634;8.120;2023-09-12T14:13:17;52.25;;;44.50;;
16039;SDS011;8124;48.634;8.120;2023-09-12T14:18:22;49.92;;;44.25;;
16039;SDS011;8124;48.634;8.120;2023-09-12T14:23:27;49.17;;;43.95;;
16039;SDS011;8124;48.634;8.120;2023-09-12T14:28:31;49.65;;;44.50;;
16039;SDS011;8124;48.634;8.120;2023-09-12T14:33:36;49.35;;;44.15;;
16039;SDS011;8124;48.634;8.120;2023-09-12T14:38:39;49.50;;;44.30;;
16039;SDS011;8124;48.634;8.120;2023-09-12T14:43:44;49.50;;;44.33;;
16039;SDS011;8124;48.634;8.120;2023-09-12T14:48:47;49.47;;;44.28;;
16039;SDS011;8124;48.634;8.120;2023-09-12T14:54:01;49.78;;;44.47;;
16039;SDS011;8124;48.634;8.120;2023-09-12T14:59:05;49.75;;;44.35;;
16039;SDS011;8124;48.634;8.120;2023-09-12T15:04:09;50.08;;;44.72;;
16039;SDS011;8124;48.634;8.120;2023-09-12T15:09:13;49.75;;;44.55;;
16039;SDS011;8124;48.634;8.120;2023-09-12T15:14:17;49.63;;;44.47;;
16039;SDS011;8124;48.634;8.120;2023-09-12T15:19:20;50.13;;;44.92;;
16039;SDS011;8124;48.634;8.120;2023-09-12T15:24:23;49.60;;;44.25;;
16039;SDS011;8124;48.634;8.120;2023-09-12T15:29:29;49.47;;;44.38;;
16039;SDS011;8124;48.634;8.120;2023-09-12T15:34:32;50.50;;;45.10;;
16039;SDS011;8124;48.634;8.120;2023-09-12T15:39:35;49.50;;;44.38;;
16039;SDS011;8124;48.634;8.120;2023-09-12T15:44:39;49.88;;;44.67;;
16039;SDS011;8124;48.634;8.120;2023-09-12T15:50:01;49.88;;;44.67;;
16039;SDS011;8124;48.634;8.120;2023-09-12T15:55:05;50.13;;;44.78;;
16039;SDS011;8124;48.634;8.120;2023-09-12T16:00:10;49.65;;;44.28;;
16039;SDS011;8124;48.634;8.120;2023-09-12T16:05:14;49.92;;;44.72;;
16039;SDS011;8124;48.634;8.120;2023-09-12T16:10:18;52.63;;;44.65;;
16039;SDS011;8124;48.634;8.120;2023-09-12T16:15:23;49.35;;;44.15;;
16039;SDS011;8124;48.634;8.120;2023-09-12T16:20:26;49.70;;;44.40;;
16039;SDS011;8124;48.634;8.120;2023-09-12T16:25:29;50.20;;;44.88;;
16039;SDS011;8124;48.634;8.120;2023-09-12T16:30:33;49.75;;;44.55;;
16039;SDS011;8124;48.634;8.120;2023-09-12T16:35:38;49.60;;;44.42;;
16039;SDS011;8124;48.634;8.120;2023-09-12T16:40:41;50.05;;;44.67;;
16039;SDS011;8124;48.634;8.120;2023-09-12T16:45:45;51.42;;;44.75;;
16039;SDS011;8124;48.634;8.120;2023-09-12T16:50:48;48.63;;;43.53;;
16039;SDS011;8124;48.634;8.120;2023-09-12T16:55:51;48.83;;;43.58;;
16039;SDS011;8124;48.634;8.120;2023-09-12T17:00:56;48.78;;;43.58;;
16039;SDS011;8124;48.634;8.120;2023-09-12T17:05:59;48.15;;;42.97;;
16039;SDS011;8124;48.634;8.120;2023-09-12T17:11:03;47.95;;;42.97;;
16039;SDS011;8124;48.634;8.120;2023-09-12T17:16:07;48.05;;;42.90;;
16039;SDS011;8124;48.634;8.120;2023-09-12T17:21:11;49.08;;;43.17;;
16039;SDS011;8124;48.634;8.120;2023-09-12T17:26:14;47.92;;;42.83;;
16039;SDS011;8124;48.634;8.120;2023-09-12T17:31:19;48.10;;;43.05;;
16039;SDS011;8124;48.634;8.120;2023-09-12T17:36:22;48.72;;;43.10;;
16039;SDS011;8124;48.634;8.120;2023-09-12T17:41:25;48.10;;;42.90;;
16039;SDS011;8124;48.634;8.120;2023-09-12T17:46:30;48.58;;;42.78;;
16039;SDS011;8124;48.634;8.120;2023-09-12T17:51:33;47.30;;;42.20;;
16039;SDS011;8124;48.634;8.120;2023-09-12T17:56:36;48.03;;;42.60;;
16039;SDS011;8124;48.634;8.120;2023-09-12T18:01:40;48.15;;;43.05;;
16039;SDS011;8124;48.634;8.120;2023-09-12T18:06:43;47.72;;;42.70;;
16039;SDS011;8124;48.634;8.120;2023-09-12T18:11:47;48.00;;;42.80;;
16039;SDS011;8124;48.634;8.120;2023-09-12T18:16:51;47.85;;;42.75;;
16039;SDS011;8124;48.634;8.120;2023-09-12T18:21:54;47.60;;;42.42;;
16039;SDS011;8124;48.634;8.120;2023-09-12T18:26:57;47.72;;;42.63;;
16039;SDS011;8124;48.634;8.120;2023-09-12T18:32:01;48.80;;;42.45;;
16039;SDS011;8124;48.634;8.120;2023-09-12T18:37:05;48.00;;;42.90;;
16039;SDS011;8124;48.634;8.120;2023-09-12T18:42:10;47.22;;;42.25;;
16039;SDS011;8124;48.634;8.120;2023-09-12T18:47:14;50.42;;;42.50;;
16039;SDS011;8124;48.634;8.120;2023-09-12T18:52:19;47.78;;;42.67;;
16039;SDS011;8124;48.634;8.120;2023-09-12T18:57:22;49.20;;;44.10;;
16039;SDS011;8124;48.634;8.120;2023-09-12T19:02:26;47.78;;;42.72;;
16039;SDS011;8124;48.634;8.120;2023-09-12T19:07:29;47.42;;;42.33;;
16039;SDS011;8124;48.634;8.120;2023-09-12T19:12:32;47.50;;;42.47;;
16039;SDS011;8124;48.634;8.120;2023-09-12T19:17:37;48.20;;;43.08;;
16039;SDS011;8124;48.634;8.120;2023-09-12T19:22:40;51.55;;;43.95;;
16039;SDS011;8124;48.634;8.120;2023-09-12T19:27:44;48.20;;;42.92;;
16039;SDS011;8124;48.634;8.120;2023-09-12T19:32:49;48.25;;;43.10;;
16039;SDS011;8124;48.634;8.120;2023-09-12T19:37:52;48.58;;;43.38;;
16039;SDS011;8124;48.634;8.120;2023-09-12T19:42:57;52.20;;;43.80;;
16039;SDS011;8124;48.634;8.120;2023-09-12T19:48:02;49.88;;;43.75;;
16039;SDS011;8124;48.634;8.120;2023-09-12T19:53:08;48.78;;;43.50;;
16039;SDS011;8124;48.634;8.120;2023-09-12T19:58:14;48.33;;;43.15;;
16039;SDS011;8124;48.634;8.120;2023-09-12T20:03:18;48.47;;;43.35;;
16039;SDS011;8124;48.634;8.120;2023-09-12T20:08:21;51.30;;;43.95;;
16039;SDS011;8124;48.634;8.120;2023-09-12T20:13:26;48.65;;;43.35;;
16039;SDS011;8124;48.634;8.120;2023-09-12T20:18:30;49.22;;;44.03;;
16039;SDS011;8124;48.634;8.120;2023-09-12T20:23:34;48.85;;;43.65;;
16039;SDS011;8124;48.634;8.120;2023-09-12T20:28:36;48.90;;;43.65;;
16039;SDS011;8124;48.634;8.120;2023-09-12T20:33:41;48.60;;;43.30;;
16039;SDS011;8124;48.634;8.120;2023-09-12T20:38:45;48.78;;;43.47;;
16039;SDS011;8124;48.634;8.120;2023-09-12T20:43:50;47.80;;;42.60;;
16039;SDS011;8124;48.634;8.120;2023-09-12T20:48:54;48.20;;;42.92;;
16039;SDS011;8124;48.634;8.120;2023-09-12T20:53:57;47.60;;;42.58;;
16039;SDS011;8124;48.634;8.120;2023-09-12T20:59:05;48.70;;;43.50;;
16039;SDS011;8124;48.634;8.120;2023-09-12T21:04:09;48.05;;;42.65;;
16039;SDS011;8124;48.634;8.120;2023-09-12T21:09:13;48.20;;;43.03;;
16039;SDS011;8124;48.634;8.120;2023-09-12T21:14:16;48.17;;;42.88;;
16039;SDS011;8124;48.634;8.120;2023-09-12T21:19:20;47.28;;;42.30;;
16039;SDS011;8124;48.634;8.120;2023-09-12T21:24:23;48.40;;;43.20;;
16039;SDS011;8124;48.634;8.120;2023-09-12T21:29:26;49.45;;;43.30;;
16039;SDS011;8124;48.634;8.120;2023-09-12T21:34:31;47.15;;;42.13;;
16039;SDS011;8124;48.634;8.120;2023-09-12T21:39:34;47.95;;;42.80;;
16039;SDS011;8124;48.634;8.120;2023-09-12T21:44:37;48.75;;;43.47;;
16039;SDS011;8124;48.634;8.120;2023-09-12T21:49:41;47.50;;;42.40;;
16039;SDS011;8124;48.634;8.120;2023-09-12T21:54:44;49.67;;;43.10;;
16039;SDS011;8124;48.634;8.120;2023-09-12T21:59:47;47.88;;;42.67;;
16039;SDS011;8124;48.634;8.120;2023-09-12T22:04:52;47.55;;;42.35;;
16039;SDS011;8124;48.634;8.120;2023-09-12T22:09:54;47.17;;;42.03;;
16039;SDS011;8124;48.634;8.120;2023-09-12T22:14:58;47.90;;;42.78;;
16039;SDS011;8124;48.634;8.120;2023-09-12T22:20:02;48.08;;;42.28;;
16039;SDS011;8124;48.634;8.120;2023-09-12T22:25:07;46.80;;;41.80;;
16039;SDS011;8124;48.634;8.120;2023-09-12T22:30:11;47.78;;;42.67;;
16039;SDS011;8124;48.634;8.120;2023-09-12T22:35:16;46.90;;;41.80;;
16039;SDS011;8124;48.634;8.120;2023-09-12T22:40:19;47.47;;;42.30;;
16039;SDS011;8124;48.634;8.120;2023-09-12T22:45:22;47.75;;;42.72;;
16039;SDS011;8124;48.634;8.120;2023-09-12T22:50:26;46.85;;;41.75;;
16039;SDS011;8124;48.634;8.120;2023-09-12T22:55:29;47.83;;;42.63;;
16039;SDS011;8124;48.634;8.120;2023-09-12T23:00:35;47.00;;;41.92;;
16039;SDS011;8124;48.634;8.120;2023-09-12T23:05:39;46.15;;;41.15;;
16039;SDS011;8124;48.634;8.120;2023-09-12T23:10:42;47.00;;;41.75;;
16039;SDS011;8124;48.634;8.120;2023-09-12T23:15:46;46.38;;;41.45;;
16039;SDS011;8124;48.634;8.120;2023-09-12T23:20:50;47.17;;;41.85;;
16039;SDS011;8124;48.634;8.120;2023-09-12T23:25:54;47.42;;;42.15;;
16039;SDS011;8124;48.634;8.120;2023-09-12T23:30:58;47.45;;;42.35;;
16039;SDS011;8124;48.634;8.120;2023-09-12T23:36:03;46.70;;;41.70;;
16039;SDS011;8124;48.634;8.120;2023-09-12T23:41:06;46.92;;;41.92;;
16039;SDS011;8124;48.634;8.120;2023-09-12T23:46:09;47.00;;;41.88;;
16039;SDS011;8124;48.634;8.120;2023-09-12T23:51:13;46.47;;;41.53;;
16039;SDS011;8124;48.634;8.120;2023-09-12T23:56:17;47.60;;;42.40;;
